Time;durP1;ratioP1;P1;durP2;ratioP2;P2;SDS_P1;SDS_P2;PMS_P1;PMS_P2;Temp;Humidity;BMP_temperature;BMP_pressure;BME280_temperature;BME280_humidity;BME280_pressure;Samples;Min_cycle;Max_cycle;Signal;HPM_P1;HPM_P2
2021/01/16 00:02:01;;;;;;;25.67;16.35;;;0.30;99.90;;;;;;4956662;29;20023;-84
2021/01/16 00:04:27;;;;;;;26.13;16.10;;;0.30;99.90;;;;;;4956684;29;20031;-84
2021/01/16 00:06:53;;;;;;;30.95;17.65;;;0.30;99.90;;;;;;4956562;28;20399;-84
2021/01/16 00:09:19;;;;;;;30.23;16.60;;;0.30;99.90;;;;;;4957821;29;20027;-84
2021/01/16 00:11:47;;;;;;;26.15;16.45;;;0.30;99.90;;;;;;4956425;28;20027;-84
2021/01/16 00:14:12;;;;;;;27.02;15.30;;;0.40;99.90;;;;;;4955671;28;20114;-84
2021/01/16 00:16:38;;;;;;;24.77;15.65;;;0.40;99.90;;;;;;4956420;29;20046;-84
2021/01/16 00:19:04;;;;;;;26.70;14.63;;;0.50;99.90;;;;;;4956339;29;20023;-84
2021/01/16 00:21:29;;;;;;;25.85;15.50;;;0.60;99.90;;;;;;4956349;29;20039;-84
2021/01/16 00:23:55;;;;;;;21.55;13.40;;;0.60;99.90;;;;;;4956295;29;20031;-84
2021/01/16 00:26:20;;;;;;;24.90;15.70;;;0.40;99.90;;;;;;4958064;29;20023;-84
2021/01/16 00:28:46;;;;;;;26.60;14.38;;;0.50;99.90;;;;;;4956422;29;20066;-84
2021/01/16 00:31:12;;;;;;;25.13;14.80;;;0.50;99.90;;;;;;4956093;28;20031;-84
2021/01/16 00:33:38;;;;;;;24.17;14.32;;;0.50;99.90;;;;;;4956189;29;20379;-84
2021/01/16 00:36:05;;;;;;;24.77;14.80;;;0.40;99.90;;;;;;4956000;28;20070;-84
2021/01/16 00:38:37;;;;;;;28.35;15.10;;;0.40;99.90;;;;;;4956555;29;20063;-84
2021/01/16 00:41:03;;;;;;;26.63;14.13;;;0.40;99.90;;;;;;4957158;28;20531;-84
2021/01/16 00:43:29;;;;;;;23.63;14.30;;;0.40;99.90;;;;;;4957199;29;20155;-84
2021/01/16 00:45:54;;;;;;;25.35;15.38;;;0.30;99.90;;;;;;4957175;29;20062;-84
2021/01/16 00:48:22;;;;;;;24.25;14.55;;;0.20;99.90;;;;;;4955877;29;20553;-84
2021/01/16 00:50:51;;;;;;;26.75;14.85;;;0.20;99.90;;;;;;4955715;29;20491;-84
2021/01/16 00:53:17;;;;;;;23.45;14.05;;;0.30;99.90;;;;;;4955764;29;20063;-84
2021/01/16 00:55:43;;;;;;;24.50;14.90;;;0.50;99.90;;;;;;4956994;29;20038;-84
2021/01/16 00:58:13;;;;;;;21.58;13.95;;;0.50;99.90;;;;;;4956935;28;20431;-84
2021/01/16 01:00:42;;;;;;;22.58;13.63;;;0.40;99.90;;;;;;4955692;29;20023;-84
2021/01/16 01:03:08;;;;;;;25.75;13.75;;;0.50;99.90;;;;;;4955631;29;20031;-84
2021/01/16 01:05:34;;;;;;;22.95;13.68;;;0.60;99.90;;;;;;4956772;28;20098;-84
2021/01/16 01:08:00;;;;;;;25.13;14.57;;;0.60;99.90;;;;;;4955529;29;20521;-84
2021/01/16 01:10:37;;;;;;;22.27;14.27;;;0.50;99.90;;;;;;4955386;29;20027;-84
2021/01/16 01:13:03;;;;;;;26.15;15.38;;;0.30;99.90;;;;;;4955414;29;20034;-84
2021/01/16 01:15:29;;;;;;;24.05;14.38;;;0.30;99.90;;;;;;4956864;29;20023;-84
2021/01/16 01:17:56;;;;;;;25.42;14.80;;;0.30;99.90;;;;;;4955340;29;20038;-84
2021/01/16 01:20:23;;;;;;;23.58;14.43;;;0.20;99.90;;;;;;4955276;29;20050;-84
2021/01/16 01:22:49;;;;;;;24.35;14.68;;;0.20;99.90;;;;;;4956510;28;20027;-84
2021/01/16 01:25:16;;;;;;;24.95;14.82;;;0.30;99.90;;;;;;4955195;28;20028;-85
2021/01/16 01:27:46;;;;;;;25.15;14.50;;;0.40;99.90;;;;;;4955138;29;20046;-84
2021/01/16 01:30:14;;;;;;;25.33;14.48;;;0.30;99.90;;;;;;4955127;29;20027;-84
2021/01/16 01:32:41;;;;;;;24.35;15.25;;;0.20;99.90;;;;;;4956232;29;20051;-84
2021/01/16 01:35:08;;;;;;;23.17;14.23;;;0.10;99.90;;;;;;4955006;29;20101;-84
2021/01/16 01:37:38;;;;;;;22.73;14.05;;;0.20;99.90;;;;;;4956434;28;20034;-84
2021/01/16 01:40:05;;;;;;;24.50;14.98;;;0.40;99.90;;;;;;4954950;29;20023;-84
2021/01/16 01:42:30;;;;;;;23.02;14.35;;;0.50;99.90;;;;;;4954678;29;20507;-84
2021/01/16 01:44:56;;;;;;;19.58;12.52;;;0.50;99.90;;;;;;4954871;29;20059;-84
2021/01/16 01:47:21;;;;;;;25.77;15.70;;;0.60;99.90;;;;;;4954796;29;20030;-84
2021/01/16 01:49:47;;;;;;;23.67;14.48;;;0.60;99.90;;;;;;4954749;29;20034;-84
2021/01/16 01:52:14;;;;;;;25.58;15.35;;;0.50;99.90;;;;;;4955930;28;20039;-84
2021/01/16 01:54:44;;;;;;;29.17;14.57;;;0.40;99.90;;;;;;4954685;29;20479;-84
2021/01/16 01:57:14;;;;;;;22.63;14.32;;;0.40;99.90;;;;;;4955926;28;20475;-84
2021/01/16 01:59:42;;;;;;;23.55;14.57;;;0.30;99.90;;;;;;4954538;29;20023;-84
2021/01/16 02:02:08;;;;;;;25.30;13.65;;;0.20;99.90;;;;;;4954559;29;20039;-84
2021/01/16 02:04:37;;;;;;;22.45;14.60;;;0.20;99.90;;;;;;4954517;29;20078;-84
2021/01/16 02:07:39;;;;;;;21.50;13.93;;;0.30;99.90;;;;;;4954518;29;20024;-84
2021/01/16 02:10:11;;;;;;;22.73;14.32;;;0.30;99.90;;;;;;4955765;28;20435;-84
2021/01/16 02:12:40;;;;;;;21.90;13.80;;;0.40;99.90;;;;;;4954362;29;20035;-84
2021/01/16 02:15:16;;;;;;;26.05;14.77;;;0.20;99.90;;;;;;4955630;28;20020;-84
2021/01/16 02:17:43;;;;;;;23.58;14.55;;;0.10;99.90;;;;;;4954373;29;20546;-84
2021/01/16 02:20:11;;;;;;;23.25;13.98;;;0.20;99.90;;;;;;4954376;29;20498;-84
2021/01/16 02:22:48;;;;;;;25.77;14.90;;;0.10;99.90;;;;;;4954293;29;20065;-84
2021/01/16 02:25:16;;;;;;;24.77;14.30;;;0.00;99.90;;;;;;4954274;29;20035;-84
2021/01/16 02:28:07;;;;;;;24.58;14.65;;;0.30;99.90;;;;;;4954256;29;20435;-84
2021/01/16 02:30:36;;;;;;;28.92;14.65;;;0.50;99.90;;;;;;4955445;28;20034;-84
2021/01/16 02:33:08;;;;;;;25.50;13.88;;;0.40;99.90;;;;;;4954202;29;20059;-84
2021/01/16 02:35:37;;;;;;;25.35;14.07;;;0.40;99.90;;;;;;4954179;29;20514;-84
2021/01/16 02:38:27;;;;;;;20.17;12.68;;;0.30;99.90;;;;;;4959458;28;20024;-84
2021/01/16 02:41:01;;;;;;;25.63;13.63;;;0.30;99.90;;;;;;4961881;28;20479;-84
2021/01/16 02:43:34;;;;;;;23.07;14.07;;;0.40;99.90;;;;;;4960405;29;20083;-84
2021/01/16 02:46:31;;;;;;;23.88;13.60;;;0.30;99.90;;;;;;4960551;29;20270;-84
2021/01/16 02:49:21;;;;;;;23.48;13.75;;;0.40;99.90;;;;;;4960451;29;20031;-84
2021/01/16 02:52:09;;;;;;;23.25;13.75;;;0.40;99.90;;;;;;4960403;28;20145;-84
2021/01/16 02:54:37;;;;;;;22.27;13.27;;;0.60;99.90;;;;;;4960412;28;20027;-84
2021/01/16 02:57:05;;;;;;;22.52;13.75;;;0.60;99.90;;;;;;4960421;29;20027;-84
2021/01/16 02:59:35;;;;;;;24.23;14.05;;;0.50;99.90;;;;;;4961596;28;20095;-84
2021/01/16 03:02:04;;;;;;;20.75;13.20;;;0.50;99.90;;;;;;4960354;29;20023;-84
2021/01/16 03:04:30;;;;;;;22.30;13.13;;;0.50;99.90;;;;;;4960293;29;20024;-84
2021/01/16 03:06:58;;;;;;;21.98;13.77;;;0.60;99.90;;;;;;4960299;28;20038;-84
2021/01/16 03:09:23;;;;;;;20.40;13.43;;;0.70;99.90;;;;;;4960289;29;20454;-84
2021/01/16 03:11:51;;;;;;;23.00;13.70;;;0.60;99.90;;;;;;4961430;29;20054;-84
2021/01/16 03:14:19;;;;;;;21.00;13.07;;;0.30;99.90;;;;;;4960269;29;20023;-84
2021/01/16 03:17:12;;;;;;;20.63;13.25;;;0.30;99.90;;;;;;4960225;28;20482;-84
2021/01/16 03:19:45;;;;;;;22.08;13.05;;;0.50;99.90;;;;;;4957028;29;20046;-84
2021/01/16 03:22:26;;;;;;;22.35;13.52;;;0.50;99.90;;;;;;4961522;28;20074;-84
2021/01/16 03:24:53;;;;;;;21.67;13.32;;;0.40;99.90;;;;;;4960129;28;20513;-84
2021/01/16 03:27:20;;;;;;;24.38;14.02;;;0.60;99.90;;;;;;4960121;29;20090;-83
2021/01/16 03:29:46;;;;;;;25.10;15.00;;;0.60;99.90;;;;;;4960093;29;20037;-84
2021/01/16 03:32:12;;;;;;;23.10;14.73;;;0.40;99.90;;;;;;4959999;28;20114;-84
2021/01/16 03:34:40;;;;;;;24.45;14.38;;;0.30;99.90;;;;;;4961316;28;20102;-84
2021/01/16 03:37:06;;;;;;;25.08;13.95;;;0.20;99.90;;;;;;4961244;28;20051;-84
2021/01/16 03:39:32;;;;;;;21.13;13.65;;;0.10;99.90;;;;;;4961261;29;20039;-84
2021/01/16 03:41:58;;;;;;;25.75;14.30;;;0.00;99.90;;;;;;4959737;28;20401;-83
2021/01/16 03:44:24;;;;;;;25.80;14.90;;;0.00;99.90;;;;;;4960009;29;20545;-84
2021/01/16 03:46:49;;;;;;;23.23;13.98;;;0.10;99.90;;;;;;4959940;29;20098;-84
2021/01/16 03:49:15;;;;;;;23.75;14.07;;;0.30;99.90;;;;;;4957200;28;20053;-84
2021/01/16 03:51:41;;;;;;;25.02;14.50;;;0.30;99.90;;;;;;4956759;28;20031;-84
2021/01/16 03:54:08;;;;;;;24.63;13.77;;;0.20;99.90;;;;;;4958088;28;20031;-84
2021/01/16 03:56:34;;;;;;;21.80;13.60;;;0.40;99.90;;;;;;4956826;29;20070;-84
2021/01/16 03:59:01;;;;;;;21.05;12.75;;;0.50;99.90;;;;;;4956794;29;20035;-84
2021/01/16 04:01:27;;;;;;;21.30;13.07;;;0.50;99.90;;;;;;4958021;28;20439;-84
2021/01/16 04:03:53;;;;;;;24.40;14.02;;;0.30;99.90;;;;;;4957935;28;20024;-84
2021/01/16 04:06:19;;;;;;;18.38;12.23;;;0.30;99.90;;;;;;4956633;29;20027;-83
2021/01/16 04:08:44;;;;;;;20.10;12.88;;;0.20;99.90;;;;;;4957870;28;20027;-84
2021/01/16 04:11:10;;;;;;;23.95;14.02;;;0.20;99.90;;;;;;4956427;29;20031;-84
2021/01/16 04:13:36;;;;;;;28.40;13.95;;;0.30;99.90;;;;;;4956534;29;20031;-84
2021/01/16 04:16:03;;;;;;;24.48;14.27;;;0.30;99.90;;;;;;4957749;28;20030;-84
2021/01/16 04:18:28;;;;;;;21.48;13.43;;;0.20;99.90;;;;;;4956379;29;20027;-84
2021/01/16 04:20:54;;;;;;;22.48;14.02;;;0.20;99.90;;;;;;4956369;29;20034;-84
2021/01/16 04:23:20;;;;;;;22.67;13.15;;;0.30;99.90;;;;;;4956349;29;20125;-84
2021/01/16 04:25:46;;;;;;;21.35;13.65;;;0.50;99.90;;;;;;4956304;29;20035;-84
2021/01/16 04:28:11;;;;;;;20.02;12.52;;;0.40;99.90;;;;;;4956262;29;20031;-84
2021/01/16 04:30:37;;;;;;;21.33;13.02;;;0.60;99.90;;;;;;4956146;29;20398;-84
2021/01/16 04:33:03;;;;;;;20.48;12.63;;;0.60;99.90;;;;;;4957388;29;20023;-84
2021/01/16 04:35:29;;;;;;;20.80;13.38;;;0.50;99.90;;;;;;4956118;29;20087;-84
2021/01/16 04:37:54;;;;;;;22.05;14.10;;;0.50;99.90;;;;;;4956050;28;20420;-84
2021/01/16 04:40:20;;;;;;;22.98;13.55;;;0.60;99.90;;;;;;4956000;29;20034;-84
2021/01/16 04:42:47;;;;;;;22.60;13.55;;;0.60;99.90;;;;;;4955807;29;20043;-84
2021/01/16 04:45:16;;;;;;;23.25;14.40;;;0.60;99.90;;;;;;4955953;29;20029;-84
2021/01/16 04:47:47;;;;;;;20.38;12.82;;;0.30;99.90;;;;;;4955901;29;20118;-84
2021/01/16 04:50:17;;;;;;;23.13;14.02;;;0.20;99.90;;;;;;4955928;29;20140;-84
2021/01/16 04:52:44;;;;;;;19.63;13.02;;;0.30;99.90;;;;;;4955782;29;20090;-84
2021/01/16 04:55:12;;;;;;;25.70;14.52;;;0.30;99.90;;;;;;4955701;29;20023;-84
2021/01/16 04:57:39;;;;;;;19.58;13.18;;;0.20;99.90;;;;;;4957230;28;20031;-83
2021/01/16 05:00:06;;;;;;;25.05;13.75;;;0.30;99.90;;;;;;4956580;28;20039;-84
2021/01/16 05:02:35;;;;;;;24.30;14.48;;;0.20;99.90;;;;;;4955643;29;20031;-83
2021/01/16 05:05:02;;;;;;;21.70;13.15;;;0.20;99.90;;;;;;4955602;29;20483;-83
2021/01/16 05:07:28;;;;;;;22.92;13.48;;;0.20;99.90;;;;;;4955542;29;20482;-84
2021/01/16 05:09:56;;;;;;;24.15;14.60;;;0.20;99.90;;;;;;4956751;28;20035;-84
2021/01/16 05:12:27;;;;;;;24.13;13.90;;;0.30;99.90;;;;;;4956647;28;20111;-84
2021/01/16 05:15:09;;;;;;;22.13;13.10;;;0.20;99.90;;;;;;4955342;29;20023;-84
2021/01/16 05:17:49;;;;;;;23.10;13.50;;;0.30;99.90;;;;;;4955361;29;20394;-84
2021/01/16 05:20:15;;;;;;;23.08;13.38;;;0.20;99.90;;;;;;4955374;29;20030;-84
2021/01/16 05:22:41;;;;;;;22.73;12.85;;;0.20;99.90;;;;;;4955265;29;20031;-83
2021/01/16 05:25:07;;;;;;;20.48;12.77;;;0.30;99.90;;;;;;4955184;29;20033;-84
2021/01/16 05:27:38;;;;;;;24.10;13.18;;;0.30;99.90;;;;;;4955468;29;20549;-84
2021/01/16 05:30:09;;;;;;;22.58;12.98;;;0.40;99.90;;;;;;4955170;29;20391;-84
2021/01/16 05:32:35;;;;;;;19.98;13.25;;;0.40;99.90;;;;;;4955252;29;20587;-83
2021/01/16 05:35:14;;;;;;;23.00;12.68;;;0.30;99.90;;;;;;4956444;28;20111;-84
2021/01/16 05:37:41;;;;;;;23.10;13.18;;;0.30;99.90;;;;;;4954979;28;20027;-83
2021/01/16 05:40:08;;;;;;;21.88;14.02;;;0.30;99.90;;;;;;4955481;29;20476;-84
2021/01/16 05:42:34;;;;;;;21.35;13.10;;;0.10;99.90;;;;;;4955949;29;20525;-84
2021/01/16 05:45:01;;;;;;;22.00;13.85;;;-0.10;99.90;;;;;;4954866;29;20054;-83
2021/01/16 05:47:28;;;;;;;21.17;14.02;;;0.10;99.90;;;;;;4954810;29;20031;-83
2021/01/16 05:49:54;;;;;;;21.95;13.43;;;0.00;99.90;;;;;;4954769;29;20070;-84
2021/01/16 05:52:20;;;;;;;21.75;12.57;;;0.10;99.90;;;;;;4954596;29;20038;-84
2021/01/16 05:54:48;;;;;;;22.30;12.88;;;0.20;99.90;;;;;;4954685;29;20028;-84
2021/01/16 05:57:17;;;;;;;21.52;13.23;;;0.30;99.90;;;;;;4954655;29;20105;-84
2021/01/16 05:59:45;;;;;;;23.25;15.10;;;0.20;99.90;;;;;;4954621;29;20026;-84
2021/01/16 06:02:13;;;;;;;22.55;14.65;;;0.10;99.90;;;;;;4954575;29;20509;-84
2021/01/16 06:04:46;;;;;;;21.70;13.93;;;0.20;99.90;;;;;;4955814;28;20027;-84
2021/01/16 06:07:13;;;;;;;23.17;13.60;;;0.30;99.90;;;;;;4954550;29;20054;-84
2021/01/16 06:09:38;;;;;;;23.15;13.18;;;0.10;99.90;;;;;;4954493;29;20471;-84
2021/01/16 06:12:06;;;;;;;20.58;12.93;;;0.10;99.90;;;;;;4953687;28;20122;-84
2021/01/16 06:14:42;;;;;;;22.30;12.63;;;0.20;99.90;;;;;;4954486;29;20023;-84
2021/01/16 06:17:11;;;;;;;21.27;12.95;;;0.30;99.90;;;;;;4955669;28;20046;-83
2021/01/16 06:19:47;;;;;;;21.50;12.95;;;0.30;99.90;;;;;;4954342;29;20066;-83
2021/01/16 06:22:14;;;;;;;22.15;12.80;;;0.20;99.90;;;;;;4955900;28;20027;-84
2021/01/16 06:24:48;;;;;;;23.45;13.80;;;0.10;99.90;;;;;;4954240;29;20059;-83
2021/01/16 06:27:24;;;;;;;19.45;12.70;;;0.00;99.90;;;;;;4954305;29;20066;-84
2021/01/16 06:29:58;;;;;;;23.40;13.55;;;0.10;99.90;;;;;;4954241;29;20034;-83
2021/01/16 06:32:26;;;;;;;22.27;12.85;;;-0.10;99.90;;;;;;4954162;29;20110;-84
2021/01/16 06:35:09;;;;;;;21.95;13.55;;;-0.10;99.90;;;;;;4954194;29;20019;-84
2021/01/16 06:37:46;;;;;;;21.23;12.40;;;-0.20;99.90;;;;;;4955327;28;20031;-83
2021/01/16 06:40:29;;;;;;;127.18;35.25;;;-0.10;99.90;;;;;;4955630;28;20031;-83
2021/01/16 06:42:56;;;;;;;116.45;29.35;;;0.00;99.90;;;;;;4955215;28;20043;-83
2021/01/16 06:45:24;;;;;;;67.18;24.77;;;0.20;99.90;;;;;;4954100;29;20496;-83
2021/01/16 06:47:58;;;;;;;28.42;14.77;;;0.10;99.90;;;;;;4955330;28;20094;-83
2021/01/16 06:50:25;;;;;;;26.73;14.20;;;0.10;99.90;;;;;;4954121;29;20033;-84
2021/01/16 06:52:51;;;;;;;28.58;14.43;;;0.10;99.90;;;;;;4955531;28;20403;-84
2021/01/16 06:55:19;;;;;;;25.80;14.02;;;0.20;99.90;;;;;;4955236;29;20490;-83
2021/01/16 06:57:45;;;;;;;26.83;14.32;;;0.30;99.90;;;;;;4955254;28;20020;-84
2021/01/16 07:00:12;;;;;;;29.05;15.68;;;0.40;99.90;;;;;;4955256;28;20526;-83
2021/01/16 07:02:39;;;;;;;24.08;13.70;;;0.30;99.90;;;;;;4953872;29;20042;-83
2021/01/16 07:05:08;;;;;;;26.50;13.75;;;0.30;99.90;;;;;;4953877;29;20031;-83
2021/01/16 07:07:42;;;;;;;23.77;13.25;;;0.10;99.90;;;;;;4953907;29;20035;-83
2021/01/16 07:10:15;;;;;;;29.42;14.63;;;0.20;99.90;;;;;;4953853;29;20062;-83
2021/01/16 07:12:44;;;;;;;26.88;14.23;;;0.20;99.90;;;;;;4953766;29;20027;-83
2021/01/16 07:15:10;;;;;;;30.63;14.85;;;0.30;99.90;;;;;;4953759;28;20094;-83
2021/01/16 07:17:37;;;;;;;26.15;14.15;;;0.30;99.90;;;;;;4953682;29;20114;-83
2021/01/16 07:20:05;;;;;;;23.98;14.07;;;0.30;99.90;;;;;;4955035;28;20151;-84
2021/01/16 07:22:32;;;;;;;26.23;14.07;;;0.50;99.90;;;;;;4953742;29;20027;-83
2021/01/16 07:25:04;;;;;;;25.80;14.45;;;0.30;99.90;;;;;;4956849;28;20023;-83
2021/01/16 07:27:33;;;;;;;22.92;12.45;;;0.40;99.90;;;;;;4957321;29;20037;-83
2021/01/16 07:30:00;;;;;;;26.38;14.07;;;0.40;99.90;;;;;;4957140;29;20475;-83
2021/01/16 07:32:44;;;;;;;24.27;13.68;;;0.50;99.90;;;;;;4957198;29;20479;-83
2021/01/16 07:35:15;;;;;;;30.00;14.50;;;0.40;99.90;;;;;;4957276;29;20039;-83
2021/01/16 07:37:42;;;;;;;27.80;14.57;;;0.50;99.90;;;;;;4958325;28;20034;-83
2021/01/16 07:40:21;;;;;;;22.10;13.63;;;0.40;99.90;;;;;;4957164;28;20062;-84
2021/01/16 07:42:58;;;;;;;26.60;14.45;;;0.40;99.90;;;;;;4956781;29;20517;-83
2021/01/16 07:45:23;;;;;;;22.88;13.88;;;0.40;99.90;;;;;;4957123;29;20118;-83
2021/01/16 07:47:55;;;;;;;23.42;13.02;;;0.40;99.90;;;;;;4957296;29;20129;-83
2021/01/16 07:50:29;;;;;;;25.20;12.82;;;0.40;99.90;;;;;;4957023;29;20031;-83
2021/01/16 07:53:03;;;;;;;24.30;14.32;;;0.40;99.90;;;;;;4958240;28;20037;-83
2021/01/16 07:55:34;;;;;;;24.63;13.57;;;0.30;99.90;;;;;;4958425;28;20059;-84
2021/01/16 07:58:11;;;;;;;24.58;13.13;;;0.10;99.90;;;;;;4958035;29;20023;-83
2021/01/16 08:00:40;;;;;;;23.50;13.18;;;0.30;99.90;;;;;;4956706;29;20026;-84
2021/01/16 08:03:43;;;;;;;22.20;13.55;;;0.20;99.90;;;;;;4957007;29;20027;-84
2021/01/16 08:06:40;;;;;;;21.92;13.38;;;0.30;99.90;;;;;;4957798;29;20385;-83
2021/01/16 08:09:17;;;;;;;21.90;12.63;;;0.40;99.90;;;;;;4956661;29;20038;-84
2021/01/16 08:11:50;;;;;;;21.77;13.20;;;0.40;99.90;;;;;;4956695;29;20081;-83
2021/01/16 08:14:19;;;;;;;25.25;14.38;;;0.40;99.90;;;;;;4956562;29;20023;-83
2021/01/16 08:16:54;;;;;;;21.30;13.32;;;0.40;99.90;;;;;;4957756;28;20390;-83
2021/01/16 08:19:27;;;;;;;;;;;0.20;99.90;;;;;;4958171;28;20090;-82
2021/01/16 08:21:57;;;;;;;22.85;12.93;;;0.20;99.90;;;;;;4957514;29;20243;-83
2021/01/16 08:24:27;;;;;;;21.48;13.57;;;0.30;99.90;;;;;;4957648;28;20030;-83
2021/01/16 08:26:58;;;;;;;19.73;12.43;;;0.40;99.90;;;;;;4956331;29;20023;-83
2021/01/16 08:29:26;;;;;;;20.85;13.20;;;0.50;99.90;;;;;;4956292;29;20031;-83
2021/01/16 08:32:11;;;;;;;19.52;13.02;;;0.40;99.90;;;;;;4956175;29;20507;-83
2021/01/16 08:34:54;;;;;;;23.33;13.27;;;0.40;99.90;;;;;;4957403;28;20491;-83
2021/01/16 08:37:39;;;;;;;21.58;12.93;;;0.50;99.90;;;;;;4956068;28;20027;-83
2021/01/16 08:40:10;;;;;;;18.67;12.15;;;0.40;99.90;;;;;;4956146;29;20380;-83
2021/01/16 08:42:50;;;;;;;22.05;13.05;;;0.50;99.90;;;;;;4955897;29;20051;-82
2021/01/16 08:45:16;;;;;;;18.70;11.60;;;0.60;99.90;;;;;;4956116;29;20031;-83
2021/01/16 08:47:58;;;;;;;19.55;12.68;;;0.70;99.90;;;;;;4955954;29;20106;-83
2021/01/16 08:50:35;;;;;;;22.13;12.27;;;0.80;99.90;;;;;;4955963;29;20031;-82
2021/01/16 08:53:21;;;;;;;19.13;11.80;;;0.80;99.90;;;;;;4957126;28;20513;-82
2021/01/16 08:55:47;;;;;;;18.85;12.13;;;0.90;99.90;;;;;;4957123;28;20024;-83
2021/01/16 08:58:13;;;;;;;19.35;11.85;;;0.80;99.90;;;;;;4955814;29;20034;-83
2021/01/16 09:00:40;;;;;;;18.05;10.98;;;0.90;99.90;;;;;;4955729;29;20030;-83
2021/01/16 09:03:10;;;;;;;19.25;11.27;;;0.80;99.90;;;;;;4955650;29;20034;-83
2021/01/16 09:05:36;;;;;;;20.45;13.00;;;0.70;99.90;;;;;;4955659;29;20494;-83
2021/01/16 09:08:16;;;;;;;18.05;11.93;;;0.50;99.90;;;;;;4956870;28;20023;-83
2021/01/16 09:10:42;;;;;;;20.20;12.77;;;0.60;99.90;;;;;;4955398;29;20046;-83
2021/01/16 09:13:28;;;;;;;21.60;11.98;;;0.70;99.90;;;;;;4955424;29;20023;-83
2021/01/16 09:15:55;;;;;;;20.13;12.20;;;0.70;99.90;;;;;;4955500;29;20023;-83
2021/01/16 09:18:20;;;;;;;16.90;11.18;;;0.70;99.90;;;;;;4956640;28;20031;-83
2021/01/16 09:20:52;;;;;;;19.80;10.82;;;0.80;99.90;;;;;;4956551;29;20027;-83
2021/01/16 09:23:25;;;;;;;18.38;11.75;;;0.90;99.90;;;;;;4956496;29;20035;-83
2021/01/16 09:25:55;;;;;;;18.10;10.77;;;0.90;99.90;;;;;;4956504;29;20159;-83
2021/01/16 09:28:43;;;;;;;16.77;10.18;;;0.90;99.90;;;;;;4955160;29;20534;-83
2021/01/16 09:31:16;;;;;;;18.05;10.65;;;0.90;99.90;;;;;;4955060;29;20023;-83
2021/01/16 09:33:47;;;;;;;16.80;11.05;;;1.10;99.90;;;;;;4954971;29;20019;-83
2021/01/16 09:36:32;;;;;;;17.52;10.73;;;1.10;99.90;;;;;;4954978;28;20031;-83
2021/01/16 09:38:58;;;;;;;15.85;9.75;;;1.00;99.90;;;;;;4954990;29;20031;-83
2021/01/16 09:41:44;;;;;;;16.27;10.48;;;1.00;99.90;;;;;;4954893;29;20143;-83
2021/01/16 09:44:09;;;;;;;14.88;9.02;;;1.20;99.90;;;;;;4955968;28;20099;-83
2021/01/16 09:46:37;;;;;;;15.70;10.02;;;1.20;99.90;;;;;;4954436;28;20061;-83
2021/01/16 09:49:04;;;;;;;13.45;9.90;;;1.20;99.90;;;;;;4954517;29;20057;-83
2021/01/16 09:51:33;;;;;;;14.85;9.60;;;1.20;99.90;;;;;;4954734;29;20399;-84
2021/01/16 09:54:12;;;;;;;15.77;9.23;;;1.20;99.90;;;;;;4954694;29;20490;-83
2021/01/16 09:56:49;;;;;;;15.25;9.50;;;1.30;99.90;;;;;;4955934;28;20127;-84
2021/01/16 09:59:24;;;;;;;13.52;9.00;;;1.50;99.90;;;;;;4954539;29;20383;-83
2021/01/16 10:02:10;;;;;;;14.23;9.60;;;1.50;99.90;;;;;;4954551;29;20050;-83
2021/01/16 10:04:43;;;;;;;14.65;9.60;;;1.60;99.90;;;;;;4954502;29;20110;-83
2021/01/16 10:07:16;;;;;;;13.00;8.80;;;1.70;99.90;;;;;;4954628;29;20483;-83
2021/01/16 10:09:49;;;;;;;12.93;8.50;;;1.60;99.90;;;;;;4955809;28;20074;-83
2021/01/16 10:12:33;;;;;;;12.15;8.43;;;1.60;99.90;;;;;;4954435;29;20031;-84
2021/01/16 10:15:06;;;;;;;14.48;9.32;;;1.60;99.90;;;;;;4954484;29;20059;-84
2021/01/16 10:17:36;;;;;;;16.63;9.50;;;1.70;99.90;;;;;;4955599;28;20511;-83
2021/01/16 10:20:12;;;;;;;14.30;9.90;;;1.70;99.90;;;;;;4954424;29;20510;-84
2021/01/16 10:22:53;;;;;;;13.80;9.32;;;1.70;99.90;;;;;;4954350;29;20027;-83
2021/01/16 10:25:23;;;;;;;15.27;9.63;;;1.60;99.90;;;;;;4954329;29;20431;-84
2021/01/16 10:27:50;;;;;;;15.02;9.68;;;1.80;99.90;;;;;;4954224;29;20114;-83
2021/01/16 10:30:22;;;;;;;13.88;8.60;;;2.20;99.90;;;;;;4954358;29;20034;-84
2021/01/16 10:32:48;;;;;;;14.68;8.85;;;2.90;99.90;;;;;;4954198;29;20041;-84
2021/01/16 10:35:21;;;;;;;13.00;9.10;;;3.70;99.90;;;;;;4954229;29;20054;-84
2021/01/16 10:37:47;;;;;;;11.30;7.55;;;4.20;99.90;;;;;;4954150;28;20030;-83
2021/01/16 10:40:13;;;;;;;13.23;8.25;;;4.30;99.90;;;;;;4955421;28;20475;-84
2021/01/16 10:42:45;;;;;;;10.15;7.32;;;4.60;99.90;;;;;;4953922;29;20051;-83
2021/01/16 10:45:12;;;;;;;10.25;6.93;;;4.60;99.90;;;;;;4954140;29;20055;-83
2021/01/16 10:47:42;;;;;;;11.05;6.28;;;4.20;99.90;;;;;;4953962;29;20394;-83
2021/01/16 10:50:13;;;;;;;9.32;5.07;;;4.30;99.90;;;;;;4955311;28;20027;-84
2021/01/16 10:52:39;;;;;;;9.52;4.70;;;4.50;99.90;;;;;;4954037;29;20507;-83
2021/01/16 10:55:10;;;;;;;8.30;5.70;;;4.20;99.90;;;;;;4954012;29;20031;-83
2021/01/16 10:57:45;;;;;;;8.18;5.75;;;4.60;99.90;;;;;;4954073;28;20102;-83
2021/01/16 11:00:12;;;;;;;;;;;5.00;99.90;;;;;;4958039;29;20031;-83
2021/01/16 11:02:41;;;;;;;9.18;6.03;;;4.60;99.90;;;;;;4958905;29;19910;-83
2021/01/16 11:05:26;;;;;;;5.63;4.07;;;4.50;99.90;;;;;;4957742;29;20039;-83
2021/01/16 11:07:55;;;;;;;6.90;5.22;;;5.20;99.90;;;;;;4959047;28;20031;-83
2021/01/16 11:10:34;;;;;;;7.18;4.80;;;6.00;99.90;;;;;;4958974;28;20023;-82
2021/01/16 11:13:23;;;;;;;6.63;4.10;;;6.60;99.90;;;;;;4957883;29;20050;-82
2021/01/16 11:15:54;;;;;;;8.50;4.45;;;6.50;99.90;;;;;;4957560;29;20035;-82
2021/01/16 11:18:30;;;;;;;7.28;5.00;;;6.50;99.90;;;;;;4957563;29;20031;-82
2021/01/16 11:21:06;;;;;;;6.63;4.50;;;6.90;99.90;;;;;;4958852;28;20027;-82
2021/01/16 11:23:47;;;;;;;7.85;4.85;;;7.00;98.50;;;;;;4957521;29;20034;-82
2021/01/16 11:26:15;;;;;;;3.90;3.20;;;6.80;94.50;;;;;;4957485;29;20475;-82
2021/01/16 11:28:54;;;;;;;5.05;3.63;;;7.30;96.50;;;;;;4958638;28;20050;-82
2021/01/16 11:31:26;;;;;;;6.40;4.00;;;7.80;96.90;;;;;;4957293;29;20368;-83
2021/01/16 11:34:22;;;;;;;5.13;3.53;;;8.40;98.40;;;;;;4957281;29;20078;-83
2021/01/16 11:37:08;;;;;;;5.22;3.63;;;8.10;93.40;;;;;;4941643;28;20407;-85
2021/01/16 11:39:51;;;;;;;5.95;4.03;;;6.80;94.70;;;;;;4957064;29;20502;-83
2021/01/16 11:42:19;;;;;;;5.03;3.42;;;6.30;98.90;;;;;;4957153;29;20043;-83
2021/01/16 11:44:55;;;;;;;5.35;3.95;;;7.20;98.20;;;;;;4957056;29;20037;-83
2021/01/16 11:47:22;;;;;;;5.03;3.58;;;7.70;96.50;;;;;;4957069;29;20055;-84
2021/01/16 11:49:48;;;;;;;5.55;3.88;;;7.40;93.00;;;;;;4958258;29;20066;-84
2021/01/16 11:52:14;;;;;;;6.45;4.15;;;6.80;97.30;;;;;;4956929;29;20050;-84
2021/01/16 11:54:40;;;;;;;5.63;4.03;;;5.80;98.80;;;;;;4956959;29;20086;-84
2021/01/16 11:57:11;;;;;;;6.20;4.35;;;5.30;99.60;;;;;;4958227;28;20047;-83
2021/01/16 11:59:39;;;;;;;6.05;4.07;;;4.80;99.90;;;;;;4956866;29;20024;-84
2021/01/16 12:02:11;;;;;;;5.50;3.90;;;4.20;99.90;;;;;;4958336;28;20023;-83
2021/01/16 12:04:44;;;;;;;6.88;3.83;;;4.00;99.90;;;;;;4958050;28;20027;-83
2021/01/16 12:07:13;;;;;;;5.85;4.50;;;3.80;99.90;;;;;;4956688;29;20554;-83
2021/01/16 12:09:43;;;;;;;5.50;4.40;;;3.40;99.90;;;;;;4957187;28;20111;-83
2021/01/16 12:12:10;;;;;;;6.85;5.22;;;3.30;99.90;;;;;;4956362;29;20034;-83
2021/01/16 12:14:37;;;;;;;8.48;3.92;;;3.10;99.90;;;;;;4956569;29;20031;-83
2021/01/16 12:17:11;;;;;;;6.30;3.95;;;3.10;99.90;;;;;;4956587;29;20027;-82
2021/01/16 12:19:38;;;;;;;5.93;4.10;;;3.00;99.90;;;;;;4956999;29;20030;-82
2021/01/16 12:22:11;;;;;;;8.50;4.32;;;2.80;99.90;;;;;;4956469;29;20443;-83
2021/01/16 12:24:38;;;;;;;5.90;4.00;;;2.90;99.90;;;;;;4956451;29;20023;-83
2021/01/16 12:27:06;;;;;;;7.53;4.88;;;2.90;99.90;;;;;;4956366;29;20039;-83
2021/01/16 12:29:39;;;;;;;8.15;5.07;;;2.70;99.90;;;;;;4956325;29;20034;-83
2021/01/16 12:32:07;;;;;;;7.53;4.63;;;2.60;99.90;;;;;;4956216;29;20031;-82
2021/01/16 12:34:33;;;;;;;7.22;4.50;;;2.40;99.90;;;;;;4957472;28;20097;-83
2021/01/16 12:36:59;;;;;;;5.63;4.28;;;2.40;99.90;;;;;;4956198;28;20031;-83
2021/01/16 12:39:26;;;;;;;8.05;5.25;;;2.40;99.90;;;;;;4957394;28;20035;-83
2021/01/16 12:41:58;;;;;;;5.63;4.47;;;2.30;99.90;;;;;;4957152;28;20026;-83
2021/01/16 12:44:24;;;;;;;7.80;4.78;;;2.30;99.90;;;;;;4956054;29;20399;-83
2021/01/16 12:46:53;;;;;;;7.15;4.93;;;2.40;99.90;;;;;;4955948;29;20086;-83
2021/01/16 12:49:19;;;;;;;6.75;4.90;;;2.40;99.90;;;;;;4955898;29;20031;-83
2021/01/16 12:51:48;;;;;;;7.07;4.97;;;2.40;99.90;;;;;;4957042;28;20052;-83
2021/01/16 12:54:17;;;;;;;8.05;5.45;;;2.30;99.90;;;;;;4955776;29;20117;-83
2021/01/16 12:56:47;;;;;;;8.95;5.68;;;2.40;99.90;;;;;;4955681;29;20024;-83
2021/01/16 12:59:14;;;;;;;6.70;5.15;;;2.40;99.90;;;;;;4955676;29;20053;-83